Aérodrome :
LOGIN :

S'inscrire | Disclaimer

   EN    FR    IT 

 










Légende :    VFR   VFR Marginal   IFR   IFR Intensif   IFR Très Intensif
Visi : 
Plafond : 
>= 8 km
>= 3000ft
5 à 8 km
1000 à 3000 ft
1500m à 5 km
500 à 1000 ft
800 à 1500m
200 à 500 ft
< 800m
< 200 ft
Symboles :   Orages  Brouillard  Fortes neiges  Fortes précipitations  Vent > 20 kt
SIGMETs :   Divers  Orages  Givrage  Turbulence  Onde Orograph.  Cendres Volcan.







- Altitude de l'aérodrome : 93 ft
- Code IATA : XRY


LEJR - Jerez

DERNIER METAR :
  • 230430Z 28006KT 250V320 9999 FEW015 10/07 Q1019

METARs EXPIRÉS :
  • 230400Z AUTO 27006KT 240V300 CAVOK 10/07 Q1019
  • 230330Z AUTO 28008KT 240V320 CAVOK 10/07 Q1019
  • 230300Z AUTO 28009KT 260V320 CAVOK 10/07 Q1019
  • 230230Z AUTO 29009KT 250V320 9999 FEW036/// 10/07 Q1019
  • 230200Z AUTO 29009KT 260V330 9999 NCD 11/08 Q1019

TAF TAF LEJR
Valide du 23 à 00h jusqu'au 24 à 00h UTC


222300Z 2300/2324 29009KT 9999 SCT030 TX17/2315Z TN06/2308Z
PROB40
TEMPO 2311/2317 29015G25KT
Pas de NOTAMs connus pour ce terrain.
1 SIGMET publié pour la FIR Madrid (LECM) :
 
Onde orographique forte
LECM SIGMET 1 VALID 230200/230600 LEVA
LECM MADRID FIR SEV MTW FCST WI N3645 W00343 - N3710 W00346 - N3724 W00215 - N3656 W00211 - N3645 W00343 FL060/200 STNR NC=



MET'MAP, la Météo Aéronautique d'un coup d'oeil ! - Copyright ORBIFLY Décembre 2007 - Disclaimer

ORBIFLY MET'MAP TEAM :

Programmation & Développement : Alexandra Zaïnal
Conception & Développement : Baudouin d'Aumeries
Co-Programmation & Développement : Marc-Olivier Méhu
Soutien technique & logistique : Manuel Goepfert

Contact : metmap@orbifly.com




SOURCES & CREDITS :

   NOAA